Trophée Interrégional Lucien-Zins

Interrégionale

OYONNAX

Du Samedi 22 Juin 2013 au Dimanche 23 Juin 2013

Bassin de 50m

50 Papillon Dames

Séries

Nom Année Club Pays Temps Points Niv.
1 CHABAS Faustine 2000 NAUTIC CLUB NÎMES FRA 0:31:53 1087
2 CHABAS Aure 2000 NAUTIC CLUB NÎMES FRA 0:32:09 1055
3 BOISSON Blandine 2000 PAYS VIENNOIS NATATION FRA 0:33:04 1003
4 DIAZ Alizée 2001 TAHITI TAH 0:33:18 996
5 PONCET Emma 2000 DAUPHINS D'ANNECY FRA 0:33:23 993
6 VINCENT Manon 2000 SAL ST-PRIEST NATATION FRA 0:33:39 984
7 LAFLEURIEL Rose 2000 MOULINS AQUAVIE FRA 0:33:45 981
8 LABELLE Laure 2000 AC ALLAUCH FRA 0:33:51 978
9 BAULIER Emilie 2000 CN LUNEL FRA 0:33:64 971
10 VENTURA Andrea 2000 CN CANNES FRA 0:33:74 966
11 NIEDERLAENDER Mathilde 2000 A.C SEYSSINETTOIS NATATION FRA 0:33:86 959
12 PERRIN Marine 2000 DAUPHINS ROMANS PÉAGOIS FRA 0:33:90 957
13 DUBARRY Chiara 2001 CN MARSEILLE FRA 0:33:96 954
14 PAIN Laetitia 2000 OLYMPIC NICE NATATION FRA 0:34:04 950
15 MONTCHALIN Laura 2000 ST-ETIENNE NATATION FRA 0:34:04 950
16 COLLIER Emilie 2000 NAUTIC CLUB NÎMES FRA 0:34:20 941
17 CARETTE-NOORI Anabelle 2000 PAYS D'AIX NATATION FRA 0:34:36 933
18 DEAGE Albane 2001 ASPTT TOULON FRA 0:34:38 932
19 LASSALLE-BLANC Fanny 2000 ASPTT BASTIA FRA 0:34:50 925
20 VERNIER Lisa 2000 DAUPHINS D'ANNECY FRA 0:34:56 922
21 MAITRE Camille 2001 DAUPHINS ROMANS PÉAGOIS FRA 0:34:59 921
22 CHEKROUN Sarah 2001 CLUB DE NATATION DE SASSENAGE FRA 0:34:68 916
23 FABICK Celine 2000 CA PÉZENAS FRA 0:34:72 914
24 MACIERI Sandra 2000 CN CANNES FRA 0:34:75 912
25 RAYNAUD Emma 2000 CNS ST-ESTÈVE FRA 0:34:76 912
26 REYMOND Lou 2000 PAYS VIENNOIS NATATION FRA 0:34:81 909
27 MARCHIO Manon 2000 OLYMPIC NICE NATATION FRA 0:34:83 908
28 COURIOL Justine 2000 AGGLO LE PUY EN VELAY NATATION FRA 0:34:85 907
29 GAUTIER Lou 2000 LE-PONT-DE-CLAIX GUC WATERPOLO FRA 0:34:89 905
30 JEAN Noémie 2000 ASPTT TOULON FRA 0:34:91 904
31 LHOMME Claire 2000 CA PIERRELATTE ASCEAC FRA 0:35:00 900
32 HOSSINE Anaïs 2000 CN CANNES FRA 0:35:01 899
33 MAISONNEUVE Laurie 2000 US VIC-LE-COMTE NATATION FRA 0:35:03 898
34 GUYON Manuela 2000 ENFANTS DU RHÔNE VALENCE FRA 0:35:03 898
35 ANDRIEU Camille 2000 C.N.P.P BOLLENE FRA 0:35:11 894
36 BASCON Paloma 2001 LE-PONT-DE-CLAIX GUC WATERPOLO FRA 0:35:12 893
37 MENY Elise 2000 NAUTIC CLUB ALP'38 FRA 0:35:12 893
38 URBANIAK Anastasia 2000 ND VILLEFRANCHE-EN-BEAUJOLAIS FRA 0:35:17 891
39 BOURDON Marie 2000 AC HYÈRES FRA 0:35:20 889
40 RENE Malaury 2000 DAUPHINS YSSINGEAUX FRA 0:35:26 886
41 BRUNET Julie 2000 CHAMALIERES-MONTFERRAND N FRA 0:35:35 882
42 FUENTES Jade 2000 CN MARSEILLE FRA 0:35:35 882
43 NOILLET Lou-Anne 2000 RILLIEUX NATATION FRA 0:35:39 880
44 PASTEUR Coline 2000 NAUTIC CLUB ALP'38 FRA 0:35:42 878
45 BROSSIER Alizée 2000 TOULON VAR NATATION FRA 0:35:45 877
46 GELFMANN Soizic 2001 CN CANNES FRA 0:35:56 871
47 GIOVANI Ophelie 2000 AUBAGNE NATATION FRA 0:35:57 871
48 CHATEL Laurine 2000 EP MANOSQUE FRA 0:35:58 870
49 BRUN Justine 2001 US ST-EGRÈVE FRA 0:35:60 869
50 GRANET Léna 2000 CN RIOM FRA 0:35:69 864
51 JACQUES Morgane 2000 ND VILLEFRANCHE-EN-BEAUJOLAIS FRA 0:35:69 864
52 JOUGLARD Noémie 2000 EP MANOSQUE FRA 0:35:83 857
53 LEGELEUX Ambre 2000 NAUTIC CLUB ALP'38 FRA 0:35:85 856
54 COSTA Noane 2001 APT NATATION FRA 0:35:90 854
55 LAFORET Flavie 2000 LYON NATATION FRA 0:35:91 853
56 MISZEZUK Laurine 2001 NAUTIC CLUB ALP'38 FRA 0:35:91 853
57 MARZOLINO Laurie 2001 LE-PONT-DE-CLAIX GUC WATERPOLO FRA 0:35:97 850
58 BESSEDE Charlotte 2000 MONTPELLIER ANUC FRA 0:36:01 848
59 GONTIER Eve 2000 LYON NATATION FRA 0:36:08 845
60 YAPP Jennifer 2000 CN LA CIOTAT FRA 0:36:15 841
61 COURTIER Alexandrine 2001 CN LA CIOTAT FRA 0:36:23 837
62 AUGIER Ysaline 2000 DAUPHINS ROMANS PÉAGOIS FRA 0:36:24 837
63 FORTIER Axelle 2000 CN ORANGE FRA 0:36:26 836
64 BOISSIERE Tess 2000 AGGLO LE PUY EN VELAY NATATION FRA 0:36:30 834
65 MONTOY Fiona 2000 DAUPHINS FC SÈTE FRA 0:36:36 831
66 MALRIC Laura 2000 DAUPHINS FC SÈTE FRA 0:36:38 830
67 DA RE Fiona 2000 VICHY VAL D'ALLIER NATATION FRA 0:36:38 830
68 BERTHIAUD Elise 2000 ST-ETIENNE NATATION FRA 0:36:48 825
69 RIVOIRARD Brune 2000 NAUTIC CLUB SORBIERS FRA 0:36:57 821
70 GROBET Jessica 2000 DAUPHINS D'ANNECY FRA 0:36:60 819
71 DAFFOS Anaelle 2001 CNS ST-ESTÈVE FRA 0:36:68 815
72 COUZINET Camille 2000 AS CACHALOTS SIX-FOURS FRA 0:36:74 812
73 LIAUD Noemie 2000 NAUTIC CLUB ALP'38 FRA 0:36:76 811
74 NGUYEN Alexandra 2000 LYON NATATION FRA 0:36:85 807
75 GINDRO Margaux 2000 VITROLLES SPORT NATATION FRA 0:36:86 807
76 LAGOUCHE Romane 2000 AS CALUIRE FRA 0:36:87 806
77 COMBIER Maëlle 2000 UN ARLES FRA 0:36:95 802
78 SALERNO Luna 2000 NAUTIC CLUB ALP'38 FRA 0:36:96 802
79 PEYRIEUX Farah 2000 ST-ETIENNE NATATION FRA 0:37:03 798
80 PIC Romane 2000 US VIC-LE-COMTE NATATION FRA 0:37:08 796
81 MYKOLOW Anna 2001 MONTPELLIER ANUC FRA 0:37:10 795
82 UGO Odessa 2000 OLYMPIC NICE NATATION FRA 0:37:15 792
83 STORACE Fanny 2001 US LE PONTET FRA 0:37:16 792
84 HOUIDEG Lilia 2001 EMS BRON FRA 0:37:17 792
85 CADOU Margaux 2001 STADE CLERMONT NATATION FRA 0:37:18 791
86 PERRIER GUSTIN Héloïse 2001 CHAMALIERES-MONTFERRAND N FRA 0:37:20 790
87 LUCAS Nolwenn 2000 GRENOBLE NATATION FRA 0:37:30 785
88 SCHENKEL Ninon 2001 CHAMALIERES-MONTFERRAND N FRA 0:37:34 783
89 VENTRE Emma 2000 ASPTT AURILLAC FRA 0:37:34 783
90 BARALE Lison 2000 AC HYÈRES FRA 0:37:38 781
91 GONCALVES Léa 2000 US LE PONTET FRA 0:37:40 780
92 BRIMEUX Louana 2000 AS CACHALOTS SIX-FOURS FRA 0:37:40 780
93 POZZEBON Elise 2001 CS BOURGOIN-JALLIEU NATATION FRA 0:37:44 779
94 VELLA Julie 2000 CNS ST-ESTÈVE FRA 0:37:49 776
95 TORRES Elvina 2001 NAUTIC CLUB NÎMES FRA 0:37:51 775
96 RUIZ Clara 2001 USN VEDENE FRA 0:37:52 775
97 DESHONS Emilie 2000 CN LA CIOTAT FRA 0:37:52 775
98 DUBERNET Emilie 2000 STADE CLERMONT NATATION FRA 0:37:63 770
99 BROC Justine 2001 DAUPHINS DE GUILHERAND GRANGES FRA 0:37:66 768
100 PIQUERET Maelle 2000 TRITON CLUB BELLEVILLE FRA 0:37:67 768
101 MEALLARES Mylene 2000 CA PIERRELATTE ASCEAC FRA 0:37:96 754
102 UIUNY Marion 2001 NAUTIC CLUB NÎMES FRA 0:37:97 753
103 ROUVIER Alice 2001 AMBÉRIEU NATATION FRA 0:38:07 749
104 PILON Dina 2000 OLYMPIC NICE NATATION FRA 0:38:09 748
105 HEY Claudia 2001 PAYS D'AIX NATATION FRA 0:38:12 746
106 FILLOUX Alixia 2000 MONTPELLIER ANUC FRA 0:38:22 742
107 MAURESA Emilie 2001 EMS BRON FRA 0:38:40 733
108 SIROP Elsa 2000 CS MEGÈVE NATATION FRA 0:38:42 732
109 MOULINET Marie 2001 CN CANNES FRA 0:38:42 732
110 DUSSAUGE Julia 2000 PAYS D'AIX NATATION FRA 0:38:43 732
111 TOME LOPES Patricia 2001 STADE CLERMONT NATATION FRA 0:38:45 731
112 CADET Coline 2000 VICHY VAL D'ALLIER NATATION FRA 0:38:47 730
113 BESSET Oriane 2000 CHASSIEU NATATION FRA 0:38:55 726
114 MORENO Fiona 2000 MONTPELLIER ANUC FRA 0:38:56 726
115 NADIR Yasmine 2000 STADE CLERMONT NATATION FRA 0:38:94 709
116 FOURAUX Capucine 2000 STADE OLYMPIQUE CHAMBÉRY FRA 0:39:20 697
117 BROSSY Marine 2001 STADE ST-LAURENT-DU-VAR NAT FRA 0:39:24 695
118 VIOLLET Margot 2000 TRITON CLUB BELLEVILLE FRA 0:39:94 664
119 MANHES Ilana 2000 STADE CLERMONT NATATION FRA 0:40:02 660
120 EZZAHR Inès 2000 C.N.P.P BOLLENE FRA 0:40:33 647
121 COTE Elia 2000 GRENOBLE NATATION FRA 0:40:54 637
122 CHEVALIER Laura 2000 TRITON CLUB BELLEVILLE FRA 0:41:02 617
123 COFFY Elsa 2000 AS VILLENEUVE-LÈS-AVIGNON FRA 0:41:86 582
124 NASRI Shaynez 2000 LYON NATATION FRA 0:42:38 560
125 AUGUSTIN Amandine 2000 EP MANOSQUE FRA - Disq.